createdAt,value
2019-06-26T00:00:36.612Z,20.40
2019-06-26T00:03:09.071Z,20.40
2019-06-26T00:05:42.296Z,20.30
2019-06-26T00:08:14.535Z,20.30
2019-06-26T00:10:47.347Z,20.20
2019-06-26T00:13:26.040Z,20.20
2019-06-26T00:15:53.727Z,20.20
2019-06-26T00:18:26.303Z,20.20
2019-06-26T00:20:58.733Z,20.20
2019-06-26T00:23:31.453Z,20.10
2019-06-26T00:26:03.671Z,20.10
2019-06-26T00:28:35.907Z,20.00
2019-06-26T00:31:08.145Z,20.00
2019-06-26T00:33:41.055Z,20.00
2019-06-26T00:36:13.736Z,19.90
2019-06-26T00:38:45.972Z,19.90
2019-06-26T00:41:18.357Z,19.90
2019-06-26T00:43:50.550Z,19.90
2019-06-26T00:46:23.350Z,19.90
2019-06-26T00:48:55.929Z,19.90
2019-06-26T00:51:28.787Z,19.90
2019-06-26T00:54:02.289Z,19.90
2019-06-26T00:56:34.531Z,19.90
2019-06-26T00:59:07.338Z,19.80
2019-06-26T01:01:39.619Z,19.90
2019-06-26T01:04:16.416Z,19.90
2019-06-26T01:06:49.541Z,19.80
2019-06-26T01:09:21.778Z,19.70
2019-06-26T01:11:54.456Z,19.70
2019-06-26T01:14:26.748Z,19.70
2019-06-26T01:16:59.310Z,19.60
2019-06-26T01:19:31.668Z,19.60
2019-06-26T01:22:03.910Z,19.50
2019-06-26T01:24:36.152Z,19.50
2019-06-26T01:27:08.396Z,19.40
2019-06-26T01:29:41.088Z,19.40
2019-06-26T01:32:14.793Z,19.40
2019-06-26T01:34:47.057Z,19.40
2019-06-26T01:37:19.282Z,19.40
2019-06-26T01:39:51.530Z,19.40
2019-06-26T01:42:23.768Z,19.40
2019-06-26T01:44:56.377Z,19.40
2019-06-26T01:47:28.946Z,19.40
2019-06-26T01:50:01.526Z,19.30
2019-06-26T01:52:33.752Z,19.30
2019-06-26T01:55:06.829Z,19.20
2019-06-26T01:57:39.466Z,19.20
2019-06-26T02:00:14.136Z,19.10
2019-06-26T02:02:46.931Z,19.10
2019-06-26T02:05:19.296Z,19.00
2019-06-26T02:07:51.991Z,19.00
2019-06-26T02:10:24.482Z,19.00
2019-06-26T02:12:57.635Z,19.00
2019-06-26T02:15:29.873Z,19.00
2019-06-26T02:18:02.557Z,18.90
2019-06-26T02:20:35.259Z,18.90
2019-06-26T02:23:07.932Z,18.90
2019-06-26T02:25:40.176Z,18.90
2019-06-26T02:28:12.744Z,18.90
2019-06-26T02:30:45.766Z,18.90
2019-06-26T02:33:18.275Z,18.90
2019-06-26T02:35:50.965Z,18.90
2019-06-26T02:38:23.208Z,18.90
2019-06-26T02:40:55.982Z,18.90
2019-06-26T02:43:28.649Z,18.80
2019-06-26T02:46:01.793Z,18.80
2019-06-26T02:48:34.366Z,18.70
2019-06-26T02:51:07.153Z,18.70
2019-06-26T02:53:40.025Z,18.60
2019-06-26T02:56:12.824Z,18.50
2019-06-26T02:58:45.055Z,18.50
2019-06-26T03:01:17.323Z,18.40
2019-06-26T03:03:49.983Z,18.40
2019-06-26T03:06:22.434Z,18.40
2019-06-26T03:08:54.764Z,18.40
2019-06-26T03:11:27.561Z,18.30
2019-06-26T03:14:00.125Z,18.30
2019-06-26T03:16:32.369Z,18.30
2019-06-26T03:19:04.714Z,18.30
2019-06-26T03:21:36.959Z,18.30
2019-06-26T03:24:09.638Z,18.20
2019-06-26T03:26:42.210Z,18.20
2019-06-26T03:29:14.775Z,18.30
2019-06-26T03:31:47.123Z,18.30
2019-06-26T03:34:19.365Z,18.30
2019-06-26T03:36:51.599Z,18.30
2019-06-26T03:39:23.849Z,18.30
2019-06-26T03:41:56.919Z,18.40
2019-06-26T03:44:29.125Z,18.40
2019-06-26T03:47:01.384Z,18.40
2019-06-26T03:49:33.623Z,18.50
2019-06-26T03:52:06.316Z,18.50
2019-06-26T03:54:39.104Z,18.60
2019-06-26T03:57:11.680Z,18.60
2019-06-26T03:59:43.920Z,18.60
2019-06-26T04:02:16.617Z,18.60
2019-06-26T04:04:48.858Z,18.60
2019-06-26T04:07:21.105Z,18.70
2019-06-26T04:09:53.404Z,18.70
2019-06-26T04:12:25.653Z,18.80
2019-06-26T04:14:58.341Z,18.80
2019-06-26T04:17:30.904Z,18.90
2019-06-26T04:20:03.593Z,18.90
2019-06-26T04:22:35.840Z,19.00
2019-06-26T04:25:08.968Z,19.10
2019-06-26T04:27:41.982Z,19.20
2019-06-26T04:30:15.686Z,19.30
2019-06-26T04:32:48.365Z,19.40
2019-06-26T04:35:21.246Z,19.50
2019-06-26T04:37:53.510Z,19.60
2019-06-26T04:40:26.177Z,19.60
2019-06-26T04:42:58.871Z,19.80
2019-06-26T04:45:31.101Z,19.80
2019-06-26T04:48:06.924Z,20.00
2019-06-26T04:50:37.661Z,20.00
2019-06-26T04:53:10.454Z,20.10
2019-06-26T04:55:43.144Z,20.20
2019-06-26T04:58:15.837Z,20.30
2019-06-26T05:00:48.406Z,20.40
2019-06-26T05:03:20.660Z,20.50
2019-06-26T05:05:53.352Z,20.60
2019-06-26T05:08:26.029Z,20.70
2019-06-26T05:10:58.873Z,20.80
2019-06-26T05:13:31.101Z,20.90
2019-06-26T05:16:14.305Z,21.00
2019-06-26T05:18:37.656Z,21.10
2019-06-26T05:21:09.899Z,21.20
2019-06-26T05:23:42.587Z,21.30
2019-06-26T05:26:15.672Z,21.40
2019-06-26T05:28:47.918Z,21.40
2019-06-26T05:31:21.196Z,21.50
2019-06-26T05:33:54.218Z,21.60
2019-06-26T05:36:26.461Z,21.70
2019-06-26T05:38:59.050Z,21.80
2019-06-26T05:41:31.619Z,21.90
2019-06-26T05:44:04.073Z,21.90
2019-06-26T05:46:36.761Z,22.10
2019-06-26T05:49:09.116Z,22.20
2019-06-26T05:51:41.361Z,22.30
2019-06-26T05:54:13.606Z,22.40
2019-06-26T05:56:45.855Z,22.40
2019-06-26T05:59:18.538Z,22.50
2019-06-26T06:01:50.783Z,22.60
2019-06-26T06:04:23.232Z,22.70
2019-06-26T06:06:55.471Z,22.80
2019-06-26T06:09:28.514Z,22.90
2019-06-26T06:12:00.878Z,23.00
2019-06-26T06:14:33.607Z,23.20
2019-06-26T06:17:05.951Z,23.20
2019-06-26T06:19:38.195Z,23.40
2019-06-26T06:22:10.437Z,23.50
2019-06-26T06:24:43.005Z,23.60
2019-06-26T06:27:15.576Z,23.70
2019-06-26T06:29:48.269Z,23.90
2019-06-26T06:32:20.507Z,24.00
2019-06-26T06:34:53.195Z,24.10
2019-06-26T06:37:25.784Z,24.20
2019-06-26T06:39:58.034Z,24.40
2019-06-26T06:42:30.274Z,24.50
2019-06-26T06:45:03.051Z,24.60
2019-06-26T06:47:35.292Z,24.70
2019-06-26T06:50:08.553Z,24.80
2019-06-26T06:52:41.458Z,24.90
2019-06-26T06:55:13.904Z,25.00
2019-06-26T06:57:46.153Z,25.10
2019-06-26T07:00:19.659Z,25.20
2019-06-26T07:02:52.450Z,25.30
2019-06-26T07:05:25.127Z,25.40
2019-06-26T07:07:57.369Z,25.50
2019-06-26T07:10:29.944Z,25.60
2019-06-26T07:13:02.780Z,25.70
2019-06-26T07:15:35.168Z,25.80
2019-06-26T07:18:07.836Z,25.90
2019-06-26T07:20:44.344Z,25.90
2019-06-26T07:23:14.719Z,26.10
2019-06-26T07:25:47.408Z,26.20
2019-06-26T07:28:20.028Z,26.30
2019-06-26T07:30:52.462Z,26.40
2019-06-26T07:33:24.706Z,26.50
2019-06-26T07:35:56.957Z,26.70
2019-06-26T07:38:29.193Z,26.80
2019-06-26T07:41:01.445Z,26.80
2019-06-26T07:43:33.686Z,27.00
2019-06-26T07:46:06.161Z,27.10
2019-06-26T07:48:38.861Z,27.10
2019-06-26T07:51:11.554Z,27.20
2019-06-26T07:53:43.807Z,27.40
2019-06-26T07:56:16.063Z,27.50
2019-06-26T07:58:48.313Z,27.60
2019-06-26T08:01:21.308Z,27.70
2019-06-26T08:03:55.087Z,27.70
2019-06-26T08:06:28.106Z,27.80
2019-06-26T08:09:00.394Z,27.90
2019-06-26T08:11:32.644Z,28.00
2019-06-26T08:14:05.083Z,28.10
2019-06-26T08:16:38.118Z,28.20
2019-06-26T08:19:10.352Z,28.30
2019-06-26T08:21:45.706Z,28.40
2019-06-26T08:24:16.812Z,28.50
2019-06-26T08:26:49.495Z,28.60
2019-06-26T08:29:22.184Z,28.60
2019-06-26T08:31:54.974Z,28.70
2019-06-26T08:34:27.659Z,28.80
2019-06-26T08:37:00.244Z,28.90
2019-06-26T08:39:32.494Z,28.90
2019-06-26T08:42:04.723Z,29.00
2019-06-26T08:44:36.971Z,29.00
2019-06-26T08:47:09.668Z,29.10
2019-06-26T08:49:41.904Z,29.30
2019-06-26T08:52:14.350Z,29.40
2019-06-26T08:54:46.931Z,29.50
2019-06-26T08:57:19.197Z,29.60
2019-06-26T08:59:51.880Z,29.60
2019-06-26T09:02:24.132Z,29.70
2019-06-26T09:04:56.712Z,29.80
2019-06-26T09:07:29.062Z,30.00
2019-06-26T09:10:02.060Z,30.10
2019-06-26T09:12:34.247Z,30.20
2019-06-26T09:15:06.817Z,30.30
2019-06-26T09:17:39.077Z,30.50
2019-06-26T09:20:12.051Z,30.60
2019-06-26T09:22:44.620Z,30.70
2019-06-26T09:25:22.158Z,30.80
2019-06-26T09:27:51.175Z,31.00
2019-06-26T09:30:23.606Z,31.10
2019-06-26T09:32:56.171Z,31.10
2019-06-26T09:35:28.858Z,31.10
2019-06-26T09:38:01.113Z,31.20
2019-06-26T09:40:33.767Z,31.20
2019-06-26T09:43:06.016Z,31.20
2019-06-26T09:45:39.042Z,31.30
2019-06-26T09:48:12.144Z,31.30
2019-06-26T09:50:44.524Z,31.50
2019-06-26T09:53:17.065Z,31.60
2019-06-26T09:55:49.628Z,31.60
2019-06-26T09:58:22.206Z,31.60
2019-06-26T10:00:55.117Z,31.60
2019-06-26T10:03:28.231Z,31.70
2019-06-26T10:06:00.470Z,31.80
2019-06-26T10:08:33.656Z,31.90
2019-06-26T10:11:06.492Z,31.90
2019-06-26T10:13:38.840Z,31.90
2019-06-26T10:16:11.739Z,32.00
2019-06-26T10:18:44.428Z,32.00
2019-06-26T10:21:17.120Z,32.10
2019-06-26T10:23:50.140Z,32.30
2019-06-26T10:26:22.389Z,32.40
2019-06-26T10:28:55.086Z,32.40
2019-06-26T10:31:28.100Z,32.50
2019-06-26T10:34:00.711Z,32.70
2019-06-26T10:36:32.927Z,32.80
2019-06-26T10:39:07.184Z,32.90
2019-06-26T10:41:39.533Z,32.90
2019-06-26T10:44:12.160Z,32.80
2019-06-26T10:46:44.846Z,32.80
2019-06-26T10:49:26.816Z,32.80
2019-06-26T10:51:51.044Z,32.90
2019-06-26T10:54:23.292Z,33.00
2019-06-26T10:56:56.407Z,33.20
2019-06-26T10:59:30.087Z,33.20
2019-06-26T11:02:02.443Z,33.20
2019-06-26T11:04:35.216Z,33.30
2019-06-26T11:07:07.807Z,33.40
2019-06-26T11:09:40.627Z,33.50
2019-06-26T11:12:13.009Z,33.60
2019-06-26T11:14:45.729Z,33.70
2019-06-26T11:17:18.298Z,33.70
2019-06-26T11:19:50.929Z,33.70
2019-06-26T11:22:23.943Z,33.80
2019-06-26T11:24:56.634Z,33.80
2019-06-26T11:27:29.319Z,33.90
2019-06-26T11:30:01.957Z,34.00
2019-06-26T11:32:34.679Z,34.10
2019-06-26T11:35:08.089Z,34.10
2019-06-26T11:37:40.449Z,34.20
2019-06-26T11:40:13.457Z,34.20
2019-06-26T11:42:45.801Z,34.20
2019-06-26T11:45:19.433Z,34.10
2019-06-26T11:47:52.453Z,34.20
2019-06-26T11:50:25.709Z,34.20
2019-06-26T11:52:57.953Z,34.20
2019-06-26T11:55:30.291Z,34.30
2019-06-26T11:58:02.887Z,34.40
2019-06-26T12:00:35.125Z,34.40
2019-06-26T12:03:07.524Z,34.40
2019-06-26T12:05:40.232Z,34.50
2019-06-26T12:08:14.151Z,34.60
2019-06-26T12:10:46.394Z,34.60
2019-06-26T12:13:18.755Z,34.70
2019-06-26T12:15:52.069Z,34.90
2019-06-26T12:18:24.341Z,35.00
2019-06-26T12:20:57.248Z,35.10
2019-06-26T12:23:29.823Z,35.10
2019-06-26T12:26:02.091Z,35.00
2019-06-26T12:28:35.290Z,35.10
2019-06-26T12:31:07.531Z,35.20
2019-06-26T12:33:40.228Z,35.20
2019-06-26T12:36:12.481Z,35.30
2019-06-26T12:38:45.174Z,35.40
2019-06-26T12:41:17.423Z,35.30
2019-06-26T12:43:49.667Z,35.40
2019-06-26T12:46:22.244Z,35.40
2019-06-26T12:48:54.474Z,35.40
2019-06-26T12:51:27.283Z,35.40
2019-06-26T12:54:00.062Z,35.40
2019-06-26T12:56:32.379Z,35.40
2019-06-26T12:59:04.614Z,35.40
2019-06-26T13:01:36.854Z,35.40
2019-06-26T13:04:09.542Z,35.40
2019-06-26T13:06:42.246Z,35.50
2019-06-26T13:09:14.978Z,35.60
2019-06-26T13:11:47.317Z,35.60
2019-06-26T13:14:19.553Z,35.60
2019-06-26T13:16:52.336Z,35.60
2019-06-26T13:19:24.517Z,35.60
2019-06-26T13:21:57.217Z,35.50
2019-06-26T13:24:29.546Z,35.50
2019-06-26T13:27:02.163Z,35.50
2019-06-26T13:29:34.803Z,35.50
2019-06-26T13:32:07.855Z,35.60
2019-06-26T13:34:40.252Z,35.60
2019-06-26T13:37:13.633Z,35.60
2019-06-26T13:39:50.612Z,35.70
2019-06-26T13:42:22.856Z,35.70
2019-06-26T13:44:55.754Z,35.70
2019-06-26T13:47:28.333Z,35.80
2019-06-26T13:50:00.889Z,35.90
2019-06-26T13:52:33.563Z,35.90
2019-06-26T13:55:07.259Z,35.80
2019-06-26T13:57:39.820Z,35.80
2019-06-26T14:00:14.756Z,35.70
2019-06-26T14:02:47.335Z,35.70
2019-06-26T14:05:19.978Z,35.70
2019-06-26T14:07:52.227Z,35.70
2019-06-26T14:10:24.550Z,35.70
2019-06-26T14:12:56.872Z,35.60
2019-06-26T14:15:29.582Z,35.60
2019-06-26T14:18:02.657Z,35.50
2019-06-26T14:20:34.897Z,35.50
2019-06-26T14:23:07.146Z,35.40
2019-06-26T14:25:39.594Z,35.40
2019-06-26T14:28:12.253Z,35.40
2019-06-26T14:30:45.100Z,35.30
2019-06-26T14:33:18.305Z,35.30
2019-06-26T14:35:51.206Z,35.30
2019-06-26T14:38:24.234Z,35.40
2019-06-26T14:40:57.833Z,35.40
2019-06-26T14:43:30.861Z,35.50
2019-06-26T14:46:03.865Z,35.40
2019-06-26T14:48:36.782Z,35.40
2019-06-26T14:51:09.799Z,35.40
2019-06-26T14:53:42.363Z,35.40
2019-06-26T14:56:15.153Z,35.40
2019-06-26T14:58:47.402Z,35.40
2019-06-26T15:01:20.293Z,35.50
2019-06-26T15:03:54.172Z,35.50
2019-06-26T15:06:26.485Z,35.40
2019-06-26T15:08:58.770Z,35.40
2019-06-26T15:11:31.000Z,35.40
2019-06-26T15:14:03.714Z,35.40
2019-06-26T15:16:36.270Z,35.40
2019-06-26T15:19:09.424Z,35.30
2019-06-26T15:21:48.639Z,35.20
2019-06-26T15:24:16.335Z,35.20
2019-06-26T15:26:48.584Z,35.20
2019-06-26T15:29:20.844Z,35.20
2019-06-26T15:31:53.540Z,35.10
2019-06-26T15:34:26.403Z,35.10
2019-06-26T15:36:58.636Z,35.10
2019-06-26T15:39:31.654Z,35.10
2019-06-26T15:42:04.338Z,35.00
2019-06-26T15:44:37.593Z,34.90
2019-06-26T15:47:10.260Z,34.90
2019-06-26T15:49:42.955Z,34.80
2019-06-26T15:52:15.710Z,34.80
2019-06-26T15:54:48.182Z,34.80
2019-06-26T15:57:20.766Z,34.80
2019-06-26T15:59:53.002Z,34.80
2019-06-26T16:02:25.757Z,34.70
2019-06-26T16:04:58.326Z,34.80
2019-06-26T16:07:30.563Z,34.70
2019-06-26T16:10:03.757Z,34.70
2019-06-26T16:12:37.470Z,34.70
2019-06-26T16:15:10.823Z,34.70
2019-06-26T16:17:59.047Z,34.70
2019-06-26T16:20:31.791Z,34.60
2019-06-26T16:23:04.030Z,34.60
2019-06-26T16:25:36.386Z,34.50
2019-06-26T16:28:08.628Z,34.60
2019-06-26T16:30:40.867Z,34.50
2019-06-26T16:33:13.494Z,34.40
2019-06-26T16:35:45.735Z,34.40
2019-06-26T16:38:17.976Z,34.30
2019-06-26T16:40:50.662Z,34.30
2019-06-26T16:43:23.343Z,34.20
2019-06-26T16:45:56.488Z,34.20
2019-06-26T16:48:28.726Z,34.20
2019-06-26T16:51:01.413Z,34.10
2019-06-26T16:53:35.561Z,34.10
2019-06-26T16:56:08.775Z,34.10
2019-06-26T16:58:41.862Z,34.00
2019-06-26T17:01:14.649Z,33.90
2019-06-26T17:03:46.902Z,33.80
2019-06-26T17:06:19.943Z,33.80
2019-06-26T17:08:52.254Z,33.80
2019-06-26T17:11:25.207Z,33.70
2019-06-26T17:13:57.544Z,33.70
2019-06-26T17:16:29.784Z,33.60
2019-06-26T17:19:02.020Z,33.60
2019-06-26T17:21:34.377Z,33.50
2019-06-26T17:24:07.041Z,33.50
2019-06-26T17:26:39.286Z,33.40
2019-06-26T17:29:12.408Z,33.30
2019-06-26T17:31:44.648Z,33.30
2019-06-26T17:34:17.022Z,33.20
2019-06-26T17:36:49.716Z,33.10
2019-06-26T17:39:22.058Z,33.10
2019-06-26T17:41:56.102Z,33.00
2019-06-26T17:44:29.116Z,33.00
2019-06-26T17:47:05.158Z,32.90
2019-06-26T17:49:35.221Z,32.80
2019-06-26T17:52:07.578Z,32.80
2019-06-26T17:54:39.813Z,32.60
2019-06-26T17:57:12.500Z,32.60
2019-06-26T17:59:46.108Z,32.50
2019-06-26T18:02:19.257Z,32.40
2019-06-26T18:04:53.170Z,32.30
2019-06-26T18:07:25.772Z,32.20
2019-06-26T18:09:58.378Z,32.10
2019-06-26T18:12:30.668Z,32.00
2019-06-26T18:15:02.980Z,31.90
2019-06-26T18:17:35.266Z,31.80
2019-06-26T18:20:08.384Z,31.70
2019-06-26T18:22:41.658Z,31.60
2019-06-26T18:25:16.754Z,31.50
2019-06-26T18:27:49.269Z,31.50
2019-06-26T18:30:22.881Z,31.40
2019-06-26T18:32:55.735Z,31.30
2019-06-26T18:35:27.978Z,31.20
2019-06-26T18:38:01.448Z,31.20
2019-06-26T18:40:34.139Z,31.10
2019-06-26T18:43:06.581Z,31.00
2019-06-26T18:45:38.827Z,30.90
2019-06-26T18:48:11.525Z,30.80
2019-06-26T18:50:43.876Z,30.70
2019-06-26T18:53:16.313Z,30.60
2019-06-26T18:55:48.567Z,30.50
2019-06-26T18:58:20.856Z,30.40
2019-06-26T19:00:53.640Z,30.20
2019-06-26T19:03:26.404Z,30.00
2019-06-26T19:05:59.091Z,29.80
2019-06-26T19:08:32.250Z,29.50
2019-06-26T19:11:04.987Z,29.30
2019-06-26T19:13:37.775Z,29.10
2019-06-26T19:16:10.340Z,28.90
2019-06-26T19:18:43.486Z,28.80
2019-06-26T19:21:16.562Z,28.70
2019-06-26T19:23:49.597Z,28.70
2019-06-26T19:26:21.842Z,28.60
2019-06-26T19:28:54.547Z,28.50
2019-06-26T19:31:27.093Z,28.50
2019-06-26T19:33:59.328Z,28.50
2019-06-26T19:36:31.681Z,28.40
2019-06-26T19:39:05.634Z,28.40
2019-06-26T19:41:38.730Z,28.30
2019-06-26T19:44:11.415Z,28.30
2019-06-26T19:46:43.988Z,28.20
2019-06-26T19:49:16.670Z,28.20
2019-06-26T19:51:48.921Z,28.10
2019-06-26T19:54:27.010Z,28.00
2019-06-26T19:56:56.784Z,28.00
2019-06-26T19:59:29.075Z,27.90
2019-06-26T20:02:01.333Z,27.80
2019-06-26T20:04:34.022Z,27.70
2019-06-26T20:07:06.904Z,27.50
2019-06-26T20:09:39.634Z,27.10
2019-06-26T20:12:11.866Z,26.80
2019-06-26T20:14:44.563Z,26.50
2019-06-26T20:17:17.583Z,26.30
2019-06-26T20:19:50.161Z,26.10
2019-06-26T20:22:23.055Z,25.90
2019-06-26T20:24:57.433Z,25.80
2019-06-26T20:27:29.170Z,25.70
2019-06-26T20:30:01.523Z,25.60
2019-06-26T20:32:35.125Z,25.50
2019-06-26T20:35:07.935Z,25.40
2019-06-26T20:37:40.618Z,25.30
2019-06-26T20:40:14.087Z,25.10
2019-06-26T20:42:46.985Z,25.00
2019-06-26T20:45:19.634Z,24.90
2019-06-26T20:47:51.881Z,24.90
2019-06-26T20:50:24.594Z,24.80
2019-06-26T20:52:57.916Z,24.80
2019-06-26T20:55:30.824Z,24.90
2019-06-26T20:58:03.946Z,24.90
2019-06-26T21:00:36.199Z,24.80
2019-06-26T21:03:08.435Z,24.70
2019-06-26T21:05:41.571Z,24.70
2019-06-26T21:08:14.356Z,24.60
2019-06-26T21:10:46.642Z,24.50
2019-06-26T21:13:19.820Z,24.40
2019-06-26T21:15:53.044Z,24.30
2019-06-26T21:18:25.757Z,24.20
2019-06-26T21:20:58.003Z,24.10
2019-06-26T21:23:31.033Z,24.00
2019-06-26T21:26:04.412Z,23.90
2019-06-26T21:28:38.026Z,23.80
2019-06-26T21:31:10.268Z,23.80
2019-06-26T21:33:42.516Z,23.70
2019-06-26T21:36:15.419Z,23.70
2019-06-26T21:38:47.658Z,23.60
2019-06-26T21:41:20.790Z,23.50
2019-06-26T21:43:53.521Z,23.40
2019-06-26T21:46:25.765Z,23.30
2019-06-26T21:48:58.660Z,23.30
2019-06-26T21:51:30.908Z,23.20
2019-06-26T21:54:03.150Z,23.20
2019-06-26T21:56:35.383Z,23.30
2019-06-26T21:59:08.076Z,23.30
2019-06-26T22:01:40.870Z,23.40
2019-06-26T22:04:13.716Z,23.40
2019-06-26T22:06:46.330Z,23.40
2019-06-26T22:09:19.306Z,23.40
2019-06-26T22:11:52.036Z,23.40
2019-06-26T22:14:25.049Z,23.30
2019-06-26T22:16:57.397Z,23.10
2019-06-26T22:19:30.105Z,23.00
2019-06-26T22:22:02.375Z,22.90
2019-06-26T22:24:34.620Z,22.80
2019-06-26T22:27:07.064Z,22.80
2019-06-26T22:29:39.748Z,22.80
2019-06-26T22:32:12.005Z,22.80
2019-06-26T22:34:48.030Z,22.90
2019-06-26T22:37:18.549Z,22.90
2019-06-26T22:39:50.794Z,23.00
2019-06-26T22:42:23.029Z,23.00
2019-06-26T22:44:55.267Z,23.10
2019-06-26T22:47:27.617Z,23.10
2019-06-26T22:49:59.954Z,23.00
2019-06-26T22:52:32.216Z,22.90
2019-06-26T22:55:04.593Z,22.80
2019-06-26T22:57:37.293Z,22.80
2019-06-26T23:00:11.764Z,22.70
2019-06-26T23:02:44.838Z,22.70
2019-06-26T23:05:18.533Z,22.70
2019-06-26T23:07:50.779Z,22.60
2019-06-26T23:10:24.158Z,22.50
2019-06-26T23:12:56.536Z,22.40
2019-06-26T23:15:28.937Z,22.30
2019-06-26T23:18:01.183Z,22.20
2019-06-26T23:20:33.531Z,22.10
2019-06-26T23:23:05.799Z,22.10
2019-06-26T23:25:38.939Z,22.10
2019-06-26T23:28:11.639Z,22.10
2019-06-26T23:30:43.897Z,22.10
2019-06-26T23:33:16.376Z,22.00
2019-06-26T23:35:48.955Z,22.00
2019-06-26T23:38:22.023Z,22.10
2019-06-26T23:40:54.286Z,22.20
2019-06-26T23:43:27.092Z,22.30
2019-06-26T23:45:59.442Z,22.30
2019-06-26T23:48:31.687Z,22.40
2019-06-26T23:51:03.939Z,22.40
2019-06-26T23:53:36.196Z,22.40
2019-06-26T23:56:08.447Z,22.50
2019-06-26T23:58:40.693Z,22.50
